createdAt,value
2017-12-02T00:01:27.232Z,17.10
2017-12-02T00:03:55.294Z,17.20
2017-12-02T00:06:24.175Z,17.40
2017-12-02T00:08:52.094Z,17.40
2017-12-02T00:11:20.012Z,17.40
2017-12-02T00:13:47.931Z,17.40
2017-12-02T00:16:15.074Z,17.40
2017-12-02T00:18:42.255Z,17.30
2017-12-02T00:21:10.222Z,17.30
2017-12-02T00:23:37.382Z,17.30
2017-12-02T00:26:04.534Z,17.30
2017-12-02T00:28:31.691Z,17.30
2017-12-02T00:30:58.840Z,17.30
2017-12-02T00:33:25.986Z,17.40
2017-12-02T00:35:53.180Z,17.30
2017-12-02T00:38:20.334Z,17.30
2017-12-02T00:40:47.483Z,17.30
2017-12-02T00:43:14.634Z,17.20
2017-12-02T00:45:41.779Z,17.30
2017-12-02T00:48:09.694Z,17.30
2017-12-02T00:50:37.651Z,17.30
2017-12-02T00:53:04.917Z,17.30
2017-12-02T00:55:32.062Z,17.30
2017-12-02T00:57:59.231Z,17.20
2017-12-02T01:00:26.377Z,17.20
2017-12-02T01:02:54.424Z,17.20
2017-12-02T01:05:21.567Z,17.20
2017-12-02T01:07:48.725Z,17.20
2017-12-02T01:10:15.938Z,17.20
2017-12-02T01:12:43.886Z,17.20
2017-12-02T01:15:11.035Z,17.30
2017-12-02T01:17:38.183Z,17.20
2017-12-02T01:20:05.331Z,17.10
2017-12-02T01:22:33.239Z,17.20
2017-12-02T01:25:01.151Z,17.20
2017-12-02T01:27:28.298Z,17.20
2017-12-02T01:29:55.439Z,17.20
2017-12-02T01:32:22.585Z,17.30
2017-12-02T01:34:49.730Z,17.20
2017-12-02T01:37:16.911Z,17.10
2017-12-02T01:39:45.039Z,17.10
2017-12-02T01:42:12.986Z,17.20
2017-12-02T01:44:41.059Z,17.20
2017-12-02T01:47:08.237Z,17.20
2017-12-02T01:49:36.253Z,17.20
2017-12-02T01:52:03.430Z,17.20
2017-12-02T01:54:31.503Z,17.10
2017-12-02T01:56:58.647Z,17.10
2017-12-02T01:59:25.818Z,17.10
2017-12-02T02:01:54.258Z,17.20
2017-12-02T02:04:21.446Z,17.20
2017-12-02T02:06:49.406Z,17.20
2017-12-02T02:09:17.330Z,17.20
2017-12-02T02:11:45.370Z,17.10
2017-12-02T02:14:13.281Z,17.00
2017-12-02T02:16:40.421Z,17.00
2017-12-02T02:19:08.499Z,17.10
2017-12-02T02:21:35.650Z,17.20
2017-12-02T02:24:02.823Z,17.20
2017-12-02T02:26:29.971Z,17.30
2017-12-02T02:28:57.878Z,17.30
2017-12-02T02:31:25.826Z,17.30
2017-12-02T02:33:52.971Z,17.30
2017-12-02T02:36:20.118Z,17.20
2017-12-02T02:38:47.266Z,17.20
2017-12-02T02:41:14.421Z,17.30
2017-12-02T02:43:41.596Z,17.30
2017-12-02T02:46:09.506Z,17.30
2017-12-02T02:48:37.268Z,17.30
2017-12-02T02:51:04.419Z,17.30
2017-12-02T02:53:31.569Z,17.20
2017-12-02T02:55:59.653Z,17.20
2017-12-02T02:58:26.805Z,17.20
2017-12-02T03:00:53.952Z,17.20
2017-12-02T03:03:22.094Z,17.20
2017-12-02T03:05:50.017Z,17.20
2017-12-02T03:08:17.162Z,17.20
2017-12-02T03:10:45.986Z,17.20
2017-12-02T03:13:13.136Z,17.20
2017-12-02T03:15:41.070Z,17.10
2017-12-02T03:18:08.229Z,17.20
2017-12-02T03:20:36.217Z,17.20
2017-12-02T03:23:03.360Z,17.20
2017-12-02T03:25:30.498Z,17.20
2017-12-02T03:27:58.466Z,17.20
2017-12-02T03:30:25.611Z,17.20
2017-12-02T03:32:53.726Z,17.10
2017-12-02T03:35:20.882Z,17.10
2017-12-02T03:37:48.798Z,17.20
2017-12-02T03:40:15.975Z,17.20
2017-12-02T03:42:43.124Z,17.20
2017-12-02T03:45:10.271Z,17.20
2017-12-02T03:47:38.216Z,17.20
2017-12-02T03:50:05.363Z,17.10
2017-12-02T03:52:32.551Z,17.10
2017-12-02T03:54:59.690Z,17.10
2017-12-02T03:57:26.836Z,17.10
2017-12-02T03:59:54.755Z,17.20
2017-12-02T04:02:22.710Z,17.20
2017-12-02T04:04:49.867Z,17.20
2017-12-02T04:07:17.790Z,17.10
2017-12-02T04:09:44.940Z,17.00
2017-12-02T04:12:12.907Z,17.10
2017-12-02T04:14:40.058Z,17.10
2017-12-02T04:17:07.244Z,17.10
2017-12-02T04:19:34.396Z,17.10
2017-12-02T04:22:01.544Z,17.20
2017-12-02T04:24:29.482Z,17.10
2017-12-02T04:26:56.634Z,17.00
2017-12-02T04:29:23.816Z,17.00
2017-12-02T04:31:50.970Z,17.00
2017-12-02T04:34:19.025Z,17.00
2017-12-02T04:36:46.180Z,17.10
2017-12-02T04:39:14.132Z,17.20
2017-12-02T04:41:41.322Z,17.30
2017-12-02T04:44:09.370Z,17.30
2017-12-02T04:46:37.406Z,17.30
2017-12-02T04:49:04.558Z,17.30
2017-12-02T04:51:32.521Z,17.30
2017-12-02T04:53:59.659Z,17.30
2017-12-02T04:56:28.543Z,17.20
2017-12-02T04:58:56.456Z,17.20
2017-12-02T05:01:24.426Z,17.20
2017-12-02T05:03:52.350Z,17.20
2017-12-02T05:06:21.232Z,17.20
2017-12-02T05:08:48.411Z,17.30
2017-12-02T05:11:16.334Z,17.20
2017-12-02T05:13:43.510Z,17.20
2017-12-02T05:16:12.186Z,17.10
2017-12-02T05:18:39.448Z,17.10
2017-12-02T05:21:08.242Z,17.10
2017-12-02T05:23:35.366Z,17.10
2017-12-02T05:26:03.436Z,17.20
2017-12-02T05:28:31.534Z,17.20
2017-12-02T05:30:59.618Z,17.20
2017-12-02T05:33:28.367Z,17.10
2017-12-02T05:35:56.290Z,17.10
2017-12-02T05:38:24.375Z,17.10
2017-12-02T05:40:51.564Z,17.10
2017-12-02T05:43:18.710Z,17.10
2017-12-02T05:45:46.618Z,17.20
2017-12-02T05:48:15.474Z,17.20
2017-12-02T05:50:43.554Z,17.20
2017-12-02T05:53:10.738Z,17.10
2017-12-02T05:55:38.654Z,17.00
2017-12-02T05:58:05.814Z,17.10
2017-12-02T06:00:32.963Z,17.10
2017-12-02T06:03:00.755Z,17.10
2017-12-02T06:05:27.934Z,17.10
2017-12-02T06:07:55.845Z,17.20
2017-12-02T06:10:22.995Z,17.20
2017-12-02T06:12:50.142Z,17.10
2017-12-02T06:15:17.297Z,17.10
2017-12-02T06:17:44.450Z,17.20
2017-12-02T06:20:11.603Z,17.10
2017-12-02T06:22:38.760Z,17.10
2017-12-02T06:25:06.667Z,17.20
2017-12-02T06:27:34.588Z,17.30
2017-12-02T06:30:02.521Z,17.30
2017-12-02T06:32:29.667Z,17.30
2017-12-02T06:34:57.574Z,17.40
2017-12-02T06:37:24.725Z,17.40
2017-12-02T06:39:51.875Z,17.40
2017-12-02T06:42:19.020Z,17.40
2017-12-02T06:44:46.974Z,17.30
2017-12-02T06:47:14.127Z,17.30
2017-12-02T06:49:41.279Z,17.30
2017-12-02T06:52:08.435Z,17.30
2017-12-02T06:54:35.579Z,17.30
2017-12-02T06:57:02.726Z,17.30
2017-12-02T06:59:29.873Z,17.30
2017-12-02T07:01:57.056Z,17.20
2017-12-02T07:04:24.211Z,17.20
2017-12-02T07:06:51.359Z,17.20
2017-12-02T07:09:18.507Z,17.30
2017-12-02T07:11:45.653Z,17.30
2017-12-02T07:14:12.800Z,17.20
2017-12-02T07:16:39.951Z,17.20
2017-12-02T07:19:07.108Z,17.20
2017-12-02T07:21:34.259Z,17.20
2017-12-02T07:24:01.407Z,17.20
2017-12-02T07:26:28.563Z,17.20
2017-12-02T07:28:55.753Z,17.30
2017-12-02T07:31:22.911Z,17.20
2017-12-02T07:33:50.823Z,17.20
2017-12-02T07:36:17.975Z,17.10
2017-12-02T07:38:45.894Z,17.20
2017-12-02T07:41:13.845Z,17.20
2017-12-02T07:43:41.347Z,17.20
2017-12-02T07:46:09.299Z,17.10
2017-12-02T07:48:37.521Z,17.20
2017-12-02T07:51:04.667Z,17.20
2017-12-02T07:53:31.811Z,17.20
2017-12-02T07:55:58.970Z,17.10
2017-12-02T07:58:26.110Z,17.10
2017-12-02T08:00:53.261Z,17.20
2017-12-02T08:03:20.410Z,17.20
2017-12-02T08:05:48.326Z,17.30
2017-12-02T08:08:15.471Z,17.40
2017-12-02T08:10:42.658Z,17.20
2017-12-02T08:13:10.601Z,17.10
2017-12-02T08:15:37.798Z,17.10
2017-12-02T08:18:04.944Z,17.10
2017-12-02T08:20:32.864Z,17.20
2017-12-02T08:23:00.011Z,17.30
2017-12-02T08:25:27.159Z,17.30
2017-12-02T08:27:54.303Z,17.40
2017-12-02T08:30:22.218Z,17.40
2017-12-02T08:32:51.032Z,17.40
2017-12-02T08:35:18.174Z,17.40
2017-12-02T08:37:46.934Z,17.40
2017-12-02T08:40:15.096Z,17.40
2017-12-02T08:42:43.024Z,17.40
2017-12-02T08:45:10.181Z,17.40
2017-12-02T08:47:38.106Z,17.30
2017-12-02T08:50:06.024Z,17.20
2017-12-02T08:52:33.176Z,17.20
2017-12-02T08:55:01.236Z,17.20
2017-12-02T08:57:28.379Z,17.20
2017-12-02T08:59:55.527Z,17.20
2017-12-02T09:02:23.578Z,17.20
2017-12-02T09:04:51.542Z,17.20
2017-12-02T09:07:20.266Z,17.30
2017-12-02T09:09:48.346Z,17.30
2017-12-02T09:12:15.491Z,17.40
2017-12-02T09:14:43.579Z,17.50
2017-12-02T09:17:10.727Z,17.50
2017-12-02T09:19:37.877Z,17.50
2017-12-02T09:22:05.029Z,17.60
2017-12-02T09:24:32.181Z,17.50
2017-12-02T09:26:59.326Z,17.50
2017-12-02T09:29:26.467Z,17.50
2017-12-02T09:31:55.476Z,17.50
2017-12-02T09:34:22.626Z,17.50
2017-12-02T09:36:49.823Z,17.50
2017-12-02T09:39:17.895Z,17.40
2017-12-02T09:41:45.087Z,17.40
2017-12-02T09:44:12.231Z,17.50
2017-12-02T09:46:40.269Z,17.40
2017-12-02T09:49:07.415Z,17.50
2017-12-02T09:51:35.506Z,17.40
2017-12-02T09:54:03.422Z,17.40
2017-12-02T09:56:30.622Z,17.40
2017-12-02T09:58:57.750Z,17.40
2017-12-02T10:01:25.694Z,17.40
2017-12-02T10:03:52.875Z,17.40
2017-12-02T10:06:20.018Z,17.40
2017-12-02T10:08:47.217Z,17.30
2017-12-02T10:11:14.412Z,17.30
2017-12-02T10:13:41.554Z,17.30
2017-12-02T10:16:08.698Z,17.30
2017-12-02T10:18:36.659Z,17.30
2017-12-02T10:21:03.854Z,17.30
2017-12-02T10:23:31.938Z,17.30
2017-12-02T10:25:59.123Z,17.20
2017-12-02T10:28:27.043Z,17.20
2017-12-02T10:30:55.026Z,17.30
2017-12-02T10:33:23.781Z,17.30
2017-12-02T10:35:52.170Z,17.30
2017-12-02T10:38:19.405Z,17.30
2017-12-02T10:40:46.548Z,17.20
2017-12-02T10:43:13.693Z,17.20
2017-12-02T10:45:40.843Z,17.20
2017-12-02T10:48:08.038Z,17.30
2017-12-02T10:50:35.187Z,17.30
2017-12-02T10:53:02.367Z,17.30
2017-12-02T10:55:30.498Z,17.20
2017-12-02T10:57:57.652Z,17.20
2017-12-02T11:00:24.802Z,17.30
2017-12-02T11:02:51.947Z,17.30
2017-12-02T11:05:19.098Z,17.40
2017-12-02T11:07:46.295Z,17.50
2017-12-02T11:10:14.218Z,17.50
2017-12-02T11:12:41.457Z,17.50
2017-12-02T11:15:08.626Z,17.40
2017-12-02T11:17:35.779Z,17.40
2017-12-02T11:20:02.931Z,17.40
2017-12-02T11:22:30.115Z,17.40
2017-12-02T11:24:57.276Z,17.40
2017-12-02T11:27:26.010Z,17.30
2017-12-02T11:29:54.046Z,17.30
2017-12-02T11:32:21.974Z,17.40
2017-12-02T11:34:49.134Z,17.40
2017-12-02T11:37:16.290Z,17.40
2017-12-02T11:39:43.431Z,17.40
2017-12-02T11:42:10.579Z,17.40
2017-12-02T11:44:37.729Z,17.20
2017-12-02T11:47:04.887Z,17.30
2017-12-02T11:49:32.057Z,17.30
2017-12-02T11:52:00.098Z,17.30
2017-12-02T11:54:27.287Z,17.30
2017-12-02T11:56:55.218Z,17.30
2017-12-02T11:59:22.357Z,17.30
2017-12-02T12:01:49.506Z,17.40
2017-12-02T12:04:16.734Z,17.30
2017-12-02T12:06:43.886Z,17.30
2017-12-02T12:09:11.147Z,17.30
2017-12-02T12:11:38.298Z,17.20
2017-12-02T12:14:05.460Z,17.20
2017-12-02T12:16:33.383Z,17.30
2017-12-02T12:19:02.203Z,16.70
2017-12-02T12:21:29.394Z,16.70
2017-12-02T12:23:56.535Z,16.20
2017-12-02T12:26:23.686Z,15.90
2017-12-02T12:28:50.830Z,15.80
2017-12-02T12:31:17.982Z,15.70
2017-12-02T12:33:45.131Z,15.70
2017-12-02T12:36:12.272Z,15.70
2017-12-02T12:38:40.203Z,15.70
2017-12-02T12:41:08.202Z,16.20
2017-12-02T12:43:36.134Z,16.20
2017-12-02T12:46:04.215Z,16.50
2017-12-02T12:48:33.063Z,16.90
2017-12-02T12:51:01.142Z,16.90
2017-12-02T12:53:28.288Z,17.00
2017-12-02T12:55:56.403Z,17.20
2017-12-02T12:58:25.226Z,17.10
2017-12-02T13:00:52.411Z,17.10
2017-12-02T13:03:19.559Z,17.10
2017-12-02T13:05:47.675Z,17.20
2017-12-02T13:08:16.699Z,17.20
2017-12-02T13:10:43.847Z,17.20
2017-12-02T13:13:11.928Z,17.20
2017-12-02T13:15:39.175Z,17.10
2017-12-02T13:18:06.362Z,17.20
2017-12-02T13:20:33.510Z,17.20
2017-12-02T13:23:01.523Z,17.20
2017-12-02T13:25:29.439Z,17.20
2017-12-02T13:27:57.523Z,17.20
2017-12-02T13:30:24.666Z,17.20
2017-12-02T13:32:51.887Z,17.20
2017-12-02T13:35:19.027Z,17.20
2017-12-02T13:37:46.299Z,17.20
2017-12-02T13:40:13.474Z,17.20
2017-12-02T13:42:40.619Z,17.20
2017-12-02T13:45:07.808Z,17.10
2017-12-02T13:47:34.958Z,17.20
2017-12-02T13:50:02.155Z,17.20
2017-12-02T13:52:29.307Z,17.20
2017-12-02T13:54:56.572Z,17.30
2017-12-02T13:57:23.810Z,17.20
2017-12-02T13:59:51.000Z,17.10
2017-12-02T14:02:18.179Z,17.20
2017-12-02T14:04:46.129Z,17.10
2017-12-02T14:07:13.329Z,17.10
2017-12-02T14:09:40.477Z,17.10
2017-12-02T14:12:07.630Z,17.20
2017-12-02T14:14:34.891Z,17.30
2017-12-02T14:17:03.043Z,17.40
2017-12-02T14:19:30.983Z,17.50
2017-12-02T14:21:58.182Z,17.50
2017-12-02T14:24:26.151Z,17.40
2017-12-02T14:26:54.066Z,17.40
2017-12-02T14:29:21.806Z,17.40
2017-12-02T14:31:48.959Z,17.40
2017-12-02T14:34:16.190Z,17.40
2017-12-02T14:36:43.350Z,17.40
2017-12-02T14:39:11.446Z,17.40
2017-12-02T14:41:39.407Z,16.80
2017-12-02T14:44:06.647Z,16.20
2017-12-02T14:46:34.406Z,16.30
2017-12-02T14:49:01.559Z,16.60
2017-12-02T14:51:28.711Z,16.80
2017-12-02T14:53:55.861Z,17.00
2017-12-02T14:56:23.894Z,17.10
2017-12-02T14:58:51.990Z,17.20
2017-12-02T15:01:19.898Z,17.30
2017-12-02T15:03:47.259Z,17.20
2017-12-02T15:06:14.404Z,17.30
2017-12-02T15:08:41.558Z,17.30
2017-12-02T15:11:08.706Z,17.20
2017-12-02T15:13:36.616Z,17.20
2017-12-02T15:16:04.534Z,17.30
2017-12-02T15:18:32.453Z,17.30
2017-12-02T15:21:00.403Z,17.30
2017-12-02T15:23:28.340Z,17.30
2017-12-02T15:25:56.411Z,17.20
2017-12-02T15:28:23.555Z,17.20
2017-12-02T15:30:50.713Z,17.20
2017-12-02T15:33:17.864Z,17.20
2017-12-02T15:35:45.991Z,17.10
2017-12-02T15:38:13.959Z,16.60
2017-12-02T15:40:41.885Z,16.70
2017-12-02T15:43:09.036Z,16.60
2017-12-02T15:45:36.231Z,16.90
2017-12-02T15:48:04.285Z,16.70
2017-12-02T15:50:31.443Z,16.90
2017-12-02T15:52:58.598Z,17.10
2017-12-02T15:55:25.756Z,17.20
2017-12-02T15:57:52.906Z,17.20
2017-12-02T16:00:20.059Z,17.30
2017-12-02T16:02:48.927Z,17.40
2017-12-02T16:05:16.587Z,17.40
2017-12-02T16:07:43.745Z,17.40
2017-12-02T16:10:10.891Z,17.40
2017-12-02T16:12:38.863Z,17.40
2017-12-02T16:15:06.017Z,17.40
2017-12-02T16:17:33.162Z,17.40
2017-12-02T16:20:00.302Z,17.40
2017-12-02T16:22:28.224Z,17.40
2017-12-02T16:24:56.143Z,17.30
2017-12-02T16:27:23.293Z,17.30
2017-12-02T16:29:51.342Z,17.20
2017-12-02T16:32:18.491Z,17.30
2017-12-02T16:34:45.640Z,17.30
2017-12-02T16:37:12.787Z,17.30
2017-12-02T16:39:40.836Z,17.30
2017-12-02T16:42:09.647Z,17.20
2017-12-02T16:44:36.796Z,17.20
2017-12-02T16:47:04.000Z,17.20
2017-12-02T16:49:31.148Z,17.20
2017-12-02T16:51:58.298Z,17.20
2017-12-02T16:54:25.482Z,17.20
2017-12-02T16:56:53.403Z,16.80
2017-12-02T16:59:20.590Z,16.80
2017-12-02T17:01:48.507Z,15.80
2017-12-02T17:04:15.659Z,15.80
2017-12-02T17:06:42.809Z,15.60
2017-12-02T17:09:09.990Z,15.40
2017-12-02T17:11:37.141Z,15.30
2017-12-02T17:14:05.071Z,15.10
2017-12-02T17:16:32.218Z,15.10
2017-12-02T17:19:00.159Z,15.10
2017-12-02T17:21:28.943Z,15.00
2017-12-02T17:23:56.094Z,15.00
2017-12-02T17:26:23.242Z,14.90
2017-12-02T17:28:50.395Z,14.80
2017-12-02T17:31:17.573Z,14.80
2017-12-02T17:33:44.711Z,14.70
2017-12-02T17:36:12.637Z,14.90
2017-12-02T17:38:39.786Z,14.90
2017-12-02T17:41:07.698Z,15.10
2017-12-02T17:43:35.627Z,15.50
2017-12-02T17:46:03.582Z,15.50
2017-12-02T17:48:30.787Z,15.90
2017-12-02T17:50:58.960Z,16.50
2017-12-02T17:53:26.929Z,16.60
2017-12-02T17:55:54.863Z,16.70
2017-12-02T17:58:22.042Z,16.60
2017-12-02T18:00:49.200Z,16.70
2017-12-02T18:03:17.131Z,16.80
2017-12-02T18:05:44.282Z,16.80
2017-12-02T18:08:11.467Z,16.80
2017-12-02T18:10:38.619Z,16.80
2017-12-02T18:13:05.775Z,16.80
2017-12-02T18:15:33.699Z,16.80
2017-12-02T18:18:00.879Z,16.80
2017-12-02T18:20:28.022Z,16.80
2017-12-02T18:22:55.941Z,16.80
2017-12-02T18:25:23.095Z,16.90
2017-12-02T18:27:50.243Z,16.90
2017-12-02T18:30:17.431Z,17.10
2017-12-02T18:32:44.693Z,17.10
2017-12-02T18:35:11.844Z,17.20
2017-12-02T18:37:39.006Z,17.20
2017-12-02T18:40:06.150Z,17.10
2017-12-02T18:42:33.298Z,17.10
2017-12-02T18:45:01.384Z,17.10
2017-12-02T18:47:28.542Z,17.10
2017-12-02T18:49:55.692Z,17.10
2017-12-02T18:52:22.834Z,17.10
2017-12-02T18:54:49.977Z,17.00
2017-12-02T18:57:17.155Z,17.00
2017-12-02T18:59:45.086Z,17.10
2017-12-02T19:02:12.270Z,17.10
2017-12-02T19:04:39.418Z,17.10
2017-12-02T19:07:06.573Z,17.00
2017-12-02T19:09:34.516Z,17.10
2017-12-02T19:12:01.658Z,17.00
2017-12-02T19:14:28.918Z,17.00
2017-12-02T19:16:56.179Z,17.10
2017-12-02T19:19:23.332Z,17.10
2017-12-02T19:21:50.487Z,17.00
2017-12-02T19:24:18.567Z,17.00
2017-12-02T19:26:45.710Z,17.10
2017-12-02T19:29:12.890Z,17.10
2017-12-02T19:31:40.807Z,17.10
2017-12-02T19:34:08.003Z,17.00
2017-12-02T19:36:35.155Z,17.10
2017-12-02T19:39:02.303Z,17.00
2017-12-02T19:41:29.464Z,17.10
2017-12-02T19:43:57.387Z,17.30
2017-12-02T19:46:24.542Z,17.30
2017-12-02T19:48:52.299Z,17.40
2017-12-02T19:51:22.643Z,17.40
2017-12-02T19:53:51.240Z,17.50
2017-12-02T19:56:20.699Z,17.50
2017-12-02T19:58:48.692Z,17.60
2017-12-02T20:01:15.850Z,17.60
2017-12-02T20:03:43.206Z,17.60
2017-12-02T20:06:10.347Z,17.50
2017-12-02T20:08:37.746Z,17.40
2017-12-02T20:11:06.992Z,17.40
2017-12-02T20:13:34.956Z,17.40
2017-12-02T20:16:02.127Z,17.40
2017-12-02T20:18:30.397Z,17.40
2017-12-02T20:20:58.555Z,17.40
2017-12-02T20:23:25.702Z,17.40
2017-12-02T20:25:52.843Z,17.40
2017-12-02T20:28:20.756Z,17.40
2017-12-02T20:30:47.902Z,17.30
2017-12-02T20:33:15.055Z,17.30
2017-12-02T20:35:42.208Z,17.20
2017-12-02T20:38:09.391Z,17.30
2017-12-02T20:40:36.547Z,17.30
2017-12-02T20:43:04.490Z,17.20
2017-12-02T20:45:32.431Z,17.30
2017-12-02T20:47:59.581Z,17.20
2017-12-02T20:50:26.722Z,17.10
2017-12-02T20:52:53.908Z,17.20
2017-12-02T20:55:21.050Z,17.20
2017-12-02T20:57:48.196Z,17.20
2017-12-02T21:00:16.382Z,17.20
2017-12-02T21:02:43.524Z,17.10
2017-12-02T21:05:11.471Z,17.10
2017-12-02T21:07:39.411Z,17.20
2017-12-02T21:10:07.363Z,17.20
2017-12-02T21:12:34.516Z,17.20
2017-12-02T21:15:01.696Z,17.10
2017-12-02T21:17:29.658Z,17.10
2017-12-02T21:19:58.475Z,17.10
2017-12-02T21:22:25.623Z,17.10
2017-12-02T21:24:52.775Z,17.10
2017-12-02T21:27:19.922Z,17.00
2017-12-02T21:29:47.067Z,17.00
2017-12-02T21:32:14.215Z,17.00
2017-12-02T21:34:42.123Z,17.20
2017-12-02T21:37:09.267Z,17.20
2017-12-02T21:39:36.413Z,17.30
2017-12-02T21:42:03.560Z,17.30
2017-12-02T21:44:30.744Z,17.30
2017-12-02T21:46:58.811Z,17.30
2017-12-02T21:49:25.952Z,17.20
2017-12-02T21:51:53.864Z,17.20
2017-12-02T21:54:21.779Z,17.20
2017-12-02T21:56:48.923Z,17.20
2017-12-02T21:59:16.073Z,17.20
2017-12-02T22:01:43.219Z,17.10
2017-12-02T22:04:10.410Z,17.20
2017-12-02T22:06:37.559Z,17.20
2017-12-02T22:09:04.707Z,17.20
2017-12-02T22:11:32.778Z,17.20
2017-12-02T22:13:59.922Z,17.10
2017-12-02T22:16:27.062Z,17.10
2017-12-02T22:18:54.208Z,17.10
2017-12-02T22:21:21.358Z,17.10
2017-12-02T22:23:48.512Z,17.10
2017-12-02T22:26:15.687Z,17.10
2017-12-02T22:28:42.827Z,17.10
2017-12-02T22:31:09.971Z,17.00
2017-12-02T22:33:37.122Z,17.10
2017-12-02T22:36:04.266Z,17.10
2017-12-02T22:38:31.419Z,17.10
2017-12-02T22:40:58.567Z,17.10
2017-12-02T22:43:25.717Z,17.10
2017-12-02T22:45:52.869Z,17.00
2017-12-02T22:48:20.029Z,17.00
2017-12-02T22:50:51.155Z,17.00
2017-12-02T22:53:18.351Z,17.10
2017-12-02T22:55:45.503Z,17.10
2017-12-02T22:58:12.646Z,17.10
2017-12-02T23:00:39.832Z,17.00
2017-12-02T23:03:07.746Z,17.00
2017-12-02T23:05:34.890Z,17.00
2017-12-02T23:08:02.087Z,17.00
2017-12-02T23:10:29.257Z,17.10
2017-12-02T23:15:30.807Z,17.30
2017-12-02T23:17:57.948Z,17.30
2017-12-02T23:20:25.100Z,17.30
2017-12-02T23:22:52.243Z,17.30
2017-12-02T23:25:19.386Z,17.20
2017-12-02T23:27:46.534Z,17.20
2017-12-02T23:32:47.992Z,17.20
2017-12-02T23:35:16.046Z,17.20
2017-12-02T23:37:44.118Z,17.10
2017-12-02T23:40:11.267Z,17.10
2017-12-02T23:42:38.410Z,17.20
2017-12-02T23:45:05.550Z,17.20
2017-12-02T23:47:32.733Z,17.20
2017-12-02T23:50:00.779Z,17.20
2017-12-02T23:52:28.691Z,17.10
2017-12-02T23:54:56.598Z,17.10
2017-12-02T23:57:24.519Z,17.10
2017-12-02T23:59:51.663Z,17.10
